»·PEaware :: N343JM KSAN-KAVX

N343JM :: KSAN-KAVX

FLIGHT INFORMATION

Flight Status: Arrived
Operator: Privately registered:
United States
More flights under this callsign
Pilot: Jamie M. (16133)
Aircraft: CESSNA 208 CARAVAN
(C208)
More flights by this aircraft type
Origin: KSAN San Diego Intl-Lindbergh
United States
Destination: KAVX Catalina
United States
More flights between these airports :: More routes between these airports
Route: MZB V23 OCN V208 SXC
File this flight plan on PilotEdge
Remarks: TEC route SANN1
Altitude:
(Current/Filed)
6,000ft
Speed:
(Current/Filed)
165kts
Departed: 23-Dec-17 06:36 PM
Arrived: 23-Dec-17 07:18 PM
Distance/Time
Traveled:
72nm/0:42
Distance/Time
To Go:
Arrived

Flight Plot

Page will automatically refresh every two minutes.


Map Options




Map Legend


Flown Route
Filed Route
Departure Airport
Arrival Airport
Navaid (VOR, NDB)
Fix

Horizontal Profiles

Position Reports

Time Latitude Longitude Heading Altitude Ground
Speed
23-Dec-17 18:21 32.734023 -117.179761 104 20ft 0kts
23-Dec-17 18:22 32.734023 -117.179761 104 20ft 0kts
23-Dec-17 18:23 32.734023 -117.179761 104 20ft 0kts
23-Dec-17 18:24 32.734023 -117.179761 104 20ft 0kts
23-Dec-17 18:25 32.734023 -117.179761 104 20ft 0kts
23-Dec-17 18:26 32.734023 -117.179761 104 20ft 0kts
23-Dec-17 18:27 32.734023 -117.179761 104 20ft 0kts
23-Dec-17 18:28 32.734023 -117.179761 104 20ft 0kts
23-Dec-17 18:29 32.734023 -117.179761 104 20ft 0kts
23-Dec-17 18:30 32.734023 -117.179761 104 20ft 0kts
23-Dec-17 18:31 32.734023 -117.179761 104 20ft 0kts
23-Dec-17 18:32 32.734023 -117.179761 104 20ft 0kts
23-Dec-17 18:33 32.734023 -117.179761 104 20ft 0kts
23-Dec-17 18:34 32.734023 -117.179761 104 20ft 0kts
23-Dec-17 18:35 32.733595 -117.179478 199 20ft 0kts
23-Dec-17 18:36 32.733066 -117.179608 189 20ft 2kts
23-Dec-17 18:37 32.731584 -117.176585 106 20ft 18kts
23-Dec-17 18:38 32.731294 -117.175555 149 20ft 0kts
23-Dec-17 18:39 32.731294 -117.175555 149 20ft 0kts
23-Dec-17 18:40 32.731294 -117.175555 149 20ft 0kts
23-Dec-17 18:41 32.730193 -117.175857 286 20ft 0kts
23-Dec-17 18:42 32.734599 -117.190979 289 807ft 81kts
23-Dec-17 18:43 32.755290 -117.212913 321 1961ft 117kts
23-Dec-17 18:44 32.784229 -117.242362 319 2334ft 133kts
23-Dec-17 18:45 32.809239 -117.270790 319 3680ft 118kts
23-Dec-17 18:46 32.839973 -117.286354 344 4967ft 127kts
23-Dec-17 18:47 32.875387 -117.296732 346 5999ft 143kts
23-Dec-17 18:48 32.918318 -117.309703 343 5999ft 169kts
23-Dec-17 18:49 32.963683 -117.326762 339 5935ft 173kts
23-Dec-17 18:50 33.009235 -117.343776 343 6010ft 169kts
23-Dec-17 18:51 33.054804 -117.359212 344 6015ft 172kts
23-Dec-17 18:52 33.101658 -117.371310 345 5975ft 172kts
23-Dec-17 18:53 33.148002 -117.385566 339 5954ft 173kts
23-Dec-17 18:54 33.192191 -117.405966 337 6043ft 169kts
23-Dec-17 18:55 33.234297 -117.430655 310 5974ft 175kts
23-Dec-17 18:56 33.244041 -117.486123 275 5959ft 173kts
23-Dec-17 18:57 33.251774 -117.542294 284 5998ft 171kts
23-Dec-17 18:58 33.263491 -117.597307 283 6002ft 171kts
23-Dec-17 18:59 33.268344 -117.653913 272 6012ft 171kts
23-Dec-17 19:00 33.269661 -117.710928 274 6021ft 171kts
23-Dec-17 19:01 33.275159 -117.767410 281 6023ft 171kts
23-Dec-17 19:02 33.280963 -117.823830 270 6059ft 171kts
23-Dec-17 19:03 33.282878 -117.880691 282 6012ft 173kts
23-Dec-17 19:04 33.290631 -117.936205 281 5929ft 168kts
23-Dec-17 19:05 33.298239 -117.989620 283 6104ft 156kts
23-Dec-17 19:06 33.309070 -118.041019 289 6127ft 161kts
23-Dec-17 19:07 33.325108 -118.091914 291 6033ft 164kts
23-Dec-17 19:08 33.337850 -118.143925 278 5989ft 164kts
23-Dec-17 19:09 33.338165 -118.197826 279 6041ft 159kts
23-Dec-17 19:10 33.348003 -118.250886 286 5815ft 162kts
23-Dec-17 19:11 33.360237 -118.302856 286 4914ft 161kts
23-Dec-17 19:12 33.366558 -118.355098 275 4216ft 151kts
23-Dec-17 19:13 33.373194 -118.404453 278 4037ft 145kts
23-Dec-17 19:14 33.397244 -118.427267 28 4150ft 149kts
23-Dec-17 19:15 33.437426 -118.408967 5 3907ft 157kts
23-Dec-17 19:16 33.479740 -118.402331 4 3899ft 149kts
23-Dec-17 19:17 33.513574 -118.423441 316 3797ft 140kts
23-Dec-17 19:18 33.542860 -118.448524 18 3930ft 139kts
23-Dec-17 19:19 33.525328 -118.415544 148 3958ft 152kts
23-Dec-17 19:20 33.486848 -118.402038 193 3497ft 156kts
23-Dec-17 19:21 33.449733 -118.410355 193 2404ft 105kts
23-Dec-17 19:22 33.423643 -118.399425 142 2422ft 91kts
23-Dec-17 19:23 33.407829 -118.410931 240 1646ft 68kts
23-Dec-17 19:24 33.404481 -118.414993 170 1607ft 9kts
23-Dec-17 19:25 33.403809 -118.415447 318 1607ft 0kts
23-Dec-17 19:26 33.403809 -118.415447 318 1607ft 0kts
23-Dec-17 19:27 33.403809 -118.415447 318 1607ft 0kts
23-Dec-17 19:28 33.403809 -118.415447 318 1607ft 0kts
23-Dec-17 19:29 33.403809 -118.415447 318 1607ft 0kts
23-Dec-17 19:30 33.403809 -118.415447 318 1607ft 0kts
23-Dec-17 19:31 33.403809 -118.415447 318 1607ft 0kts
23-Dec-17 19:32 33.403809 -118.415447 318 1607ft 0kts
23-Dec-17 19:33 33.403809 -118.415447 318 1607ft 0kts
23-Dec-17 19:34 33.404051 -118.415041 13 1607ft 11kts
23-Dec-17 19:35 33.405981 -118.413398 54 1607ft 11kts
23-Dec-17 19:36 33.407141 -118.411470 52 1607ft 0kts
23-Dec-17 19:37 33.401958 -118.421560 242 1985ft 91kts
23-Dec-17 19:38 33.386283 -118.415341 96 3844ft 105kts
23-Dec-17 19:39 33.399056 -118.381839 32 4965ft 149kts

Navigation Log

Ident Type
1. KSAN Airport
2. MZB Navaid
3. CARIF Fix
4. HURSI Fix
5. OCN Navaid
6. HUBRD Fix
7. PACIF Fix
8. AVOLS Fix
9. SXC Navaid
10. KAVX Airport